Qiryat Bialik, Israel
Current Conditions -  °F | °C
As of 10:50 AM on Thursday 29 Jan 2015 (Local Time) from LLHA Reporting Station
Few Clouds Few Clouds  
Wind Chill: 63°   Ceiling: Unl
Heat Index: 63°   Visibility: 6mi
Dew Point: 45°   Wind: 8mph
Humidity: 52%   Direction: 140°SE
Pressure: 29.97"   Gusts: NA
Location:  32.83°N, 35.08°E
Report Text: LLHA 290750Z 14007KT 9999 FEW040 17/07 Q1015
Loading
Personal Weather Stations






























Interactive Weather Map New forecast layout! Learn more

10-Day Weather Forecast

Advertisements
Track Severe Weather on mobile